• Join FlightAware (Why Join?)
  • Login
  • US Flag 
02:36PM EDT


 

Airport Tracker/Info


-or-


 

Live Flight TrackerFlight Track Log ✈ VIN11 ✈ 17-Jul-2013 ✈ YGTE - YPDN / DRW

Flight Track Log - Related Links

Times and Time Zones

All times are in EDT time to prevent confusion due to time zone crossing. See the VIN11 flight status page for this flight to view local times or setup timezone preferences in your user account.

Time Position Orientation Groundspeed Altitude Reporting Facility
EDT Latitude Longitude Course Direction KTS MPH feet Rate Location/Type
04:27AM -13.9592 136.3942 285° West 20,000  Level Aus ATC (Calculated)
04:28AM -13.9429 136.3334 285° West 20,000  Level Aus ATC (Calculated)
04:30AM -13.9394 136.3205 285° West  Level FlightAware Approximate
04:31AM -13.9203 136.2491 285° West  Level FlightAware Approximate
04:31AM -13.8940 136.1511 285° West 20,000  Level Aus ATC (Calculated)
04:33AM -13.8566 136.0119 285° West  Level FlightAware Approximate
04:33AM -13.8450 135.9688 285° West 20,000  Level Aus ATC (Calculated)
04:34AM -13.8373 135.9405 285° West  Level FlightAware Approximate
04:35AM -13.8187 135.8713 286° West  Level FlightAware Approximate
04:36AM -13.7994 135.7999 286° West  Level FlightAware Approximate
04:37AM -13.7801 135.7286 286° West  Level FlightAware Approximate
04:38AM -13.7608 135.6573 286° West  Level FlightAware Approximate
04:39AM -13.7415 135.5860 286° West  Level FlightAware Approximate
04:40AM -13.7221 135.5146 286° West  Level FlightAware Approximate
04:41AM -13.7028 135.4433 286° West  Level FlightAware Approximate
04:42AM -13.6834 135.3721 286° West  Level FlightAware Approximate
04:43AM -13.6640 135.3008 286° West  Level FlightAware Approximate
04:44AM -13.6445 135.2295 286° West  Level FlightAware Approximate
04:45AM -13.6251 135.1583 286° West  Level FlightAware Approximate
04:46AM -13.6056 135.0870 286° West  Level FlightAware Approximate
04:46AM -13.6298 135.1515 286° West 330 380  Level Aus ATC (RADAR)
04:47AM -13.6157 135.0918 284° West 300 345 20,000 8,580 Climbing Aus ATC (RADAR)
04:48AM -13.5987 135.0383 288° West 272 313  Descending Aus ATC (RADAR)
04:49AM -13.5836 134.9852 286° West 262 302 20,000 15,000 Climbing Aus ATC (RADAR)
04:49AM -13.5704 134.9423 288° West 266 306 20,000  Level Aus ATC (RADAR)
04:50AM -13.5543 134.8873 287° West 268 308 20,000  Level Aus ATC (RADAR)
04:51AM -13.5376 134.8118 283° West 270 311 20,100  Climbing Aus ATC (RADAR)
04:52AM -13.5265 134.7569 282° West 264 304 20,100  Level Aus ATC (RADAR)
04:52AM -13.5147 134.7076 284° West 262 302 20,100  Level Aus ATC (RADAR)
04:53AM -13.4984 134.6526 287° West 262 302 20,100  Level Aus ATC (RADAR)
04:54AM -13.4785 134.5934 289° West 262 302 20,100  Level Aus ATC (RADAR)
04:55AM -13.4592 134.5383 290° West 268 308 20,100  Level Aus ATC (RADAR)
04:55AM -13.4454 134.4953 288° West 269 310 20,100  Level Aus ATC (RADAR)
04:56AM -13.4214 134.4234 289° West 263 303 20,100  Level Aus ATC (RADAR)
04:57AM -13.3980 134.3637 292° West 266 306 20,100 -60 Level Aus ATC (RADAR)
04:58AM -13.3771 134.3028 289° West 268 308 20,000 -120 Descending Aus ATC (RADAR)
04:58AM -13.3632 134.2686 293° West 259 298 20,000  Level Aus ATC (RADAR)
04:59AM -13.3462 134.2279 293° West 260 299 20,000  Level Aus ATC (RADAR)
05:00AM -13.3315 134.1873 291° West 260 299 20,000  Level Aus ATC (RADAR)
05:00AM -13.3162 134.1467 291° West 259 298 20,000  Level Aus ATC (RADAR)
05:01AM -13.2907 134.0816 292° West 264 304 20,000 -60 Level Aus ATC (RADAR)
05:02AM -13.2607 134.0172 296° West 277 319 19,900 -60 Descending Aus ATC (RADAR)
05:03AM -13.2419 133.9617 289° West 244 281 19,900  Level Aus ATC (RADAR)
05:03AM -13.2204 133.9107 293° West 261 300 19,900 60 Level Aus ATC (RADAR)
05:04AM -13.2041 133.8631 289° West 266 306 20,000  Climbing Aus ATC (RADAR)
05:05AM -13.1924 133.8272 289° West 263 303 19,900  Descending Aus ATC (RADAR)
05:05AM -13.1778 133.7859 290° West 262 302 20,000  Climbing Aus ATC (RADAR)
05:06AM -13.1599 133.7387 291° West 263 303 19,900 -120 Descending Aus ATC (RADAR)
05:06AM -13.1452 133.6971 290° West 264 304 19,900 60 Level Aus ATC (RADAR)
05:07AM -13.1261 133.6441 290° West 262 302 20,000  Climbing Aus ATC (RADAR)
05:08AM -13.0967 133.5683 292° West 262 302 20,000  Level Aus ATC (RADAR)
05:09AM -13.0768 133.5156 291° West 262 302 20,000  Level Aus ATC (RADAR)
05:10AM -13.0590 133.4760 295° West 260 299 20,000  Level Aus ATC (RADAR)
05:10AM -13.0409 133.4365 295° West 259 298 20,000  Level Aus ATC (RADAR)
05:11AM -13.0217 133.3909 293° West 259 298 20,000  Level Aus ATC (RADAR)
05:11AM -13.0052 133.3508 293° West 259 298 20,000  Level Aus ATC (RADAR)
05:12AM -12.9859 133.2983 291° West 261 300 20,000 -60 Level Aus ATC (RADAR)
05:13AM -12.9592 133.2146 288° West 263 303 19,900 -60 Descending Aus ATC (RADAR)
05:14AM -12.9433 133.1731 292° West 264 304 19,900  Level Aus ATC (RADAR)
05:15AM -12.9247 133.1260 292° West 264 304 19,900  Level Aus ATC (RADAR)
05:15AM -12.9032 133.0739 293° West 261 300 19,900  Level Aus ATC (RADAR)
05:16AM -12.8711 132.9987 294° West 262 302 19,900  Level Aus ATC (RADAR)
05:17AM -12.8468 132.9405 293° West 263 303 19,900  Level Aus ATC (RADAR)
05:18AM -12.8298 132.8999 293° West 263 303 19,900  Level Aus ATC (RADAR)
05:19AM -12.7991 132.8239 293° West 264 304 19,900  Level Aus ATC (RADAR)
05:20AM -12.7781 132.7578 288° West 263 303 19,900  Level Aus ATC (RADAR)
05:21AM -12.7582 132.7043 291° West 264 304 19,900  Level Aus ATC (RADAR)
05:21AM -12.7400 132.6576 292° West 263 303 19,900 60 Level Aus ATC (RADAR)
05:22AM -12.7242 132.6165 291° West 262 302 20,000 60 Climbing Aus ATC (RADAR)
05:23AM -12.7063 132.5692 291° West 264 304 20,000  Level Aus ATC (RADAR)
05:23AM -12.6905 132.5278 291° West 265 305 20,000  Level Aus ATC (RADAR)
05:24AM -12.6690 132.4688 291° West 261 300 20,000  Level Aus ATC (RADAR)
05:24AM -12.6554 132.4336 292° West 262 302 20,000  Level Aus ATC (RADAR)
05:25AM -12.6393 132.3924 292° West 264 304 20,000  Level Aus ATC (RADAR)
05:26AM -12.6158 132.3328 292° West 266 306 20,000  Level Aus ATC (RADAR)
05:26AM -12.5991 132.2913 292° West 266 306 20,000  Level Aus ATC (RADAR)
05:27AM -12.5845 132.2363 285° West 262 302 20,000  Level Aus ATC (RADAR)
05:28AM -12.5735 132.1928 285° West 266 306 20,000  Level Aus ATC (RADAR)
05:28AM -12.5586 132.1432 287° West 270 311 20,000 -60 Level Aus ATC (RADAR)
05:29AM -12.5359 132.0623 286° West 269 310 19,900  Descending Aus ATC (RADAR)
05:30AM -12.5187 132.0007 286° West 268 308 20,000 60 Climbing Aus ATC (RADAR)
05:31AM -12.5079 131.9572 284° West 267 307 20,000 -600 Level Aus ATC (RADAR)
05:32AM -12.4934 131.9000 285° West 274 315 19,200 -1,260 Descending Aus ATC (RADAR)
05:33AM -12.4752 131.8201 283° West 283 326 17,800 -1,500 Descending Aus ATC (RADAR)
05:33AM -12.4632 131.7596 281° West 282 325 16,600 -1,680 Descending Aus ATC (RADAR)
05:34AM -12.4581 131.7050 275° West 282 325 15,500 -1,620 Descending Aus ATC (RADAR)
05:35AM -12.4613 131.6373 267° West 282 325 14,200 -1,620 Descending Aus ATC (RADAR)
05:36AM -12.4631 131.5541 269° West 289 333 12,600 -1,440 Descending Aus ATC (RADAR)
05:37AM -12.4637 131.4930 269° West 281 323 11,700 -1,380 Descending Aus ATC (RADAR)
05:37AM -12.4658 131.4474 267° West 273 314 10,800 -1,320 Descending Aus ATC (RADAR)
05:38AM -12.4670 131.3891 269° West 269 310 10,000 -1,140 Descending Aus ATC (RADAR)
05:39AM -12.4690 131.3034 269° West 260 299 8,700 -1,320 Descending Aus ATC (RADAR)
05:40AM -12.4695 131.2506 269° West 272 313 7,600 -1,800 Descending Aus ATC (RADAR)
05:40AM -12.4700 131.2041 269° West 275 316 6,500 -1,800 Descending Aus ATC (RADAR)
05:41AM -12.4700 131.1451 270° West 269 310 5,200 -1,620 Descending Aus ATC (RADAR)
05:42AM -12.4685 131.1055 272° West 238 274 4,400 -1,680 Descending Aus ATC (RADAR)
05:42AM -12.4673 131.0694 272° West 217 250 3,300 -1,320 Descending Aus ATC (RADAR)
05:43AM -12.4649 131.0359 274° West 195 224 2,900 -780 Descending Aus ATC (RADAR)
05:43AM -12.4575 131.0074 285° West 177 204 2,400 -1,020 Descending Aus ATC (RADAR)
05:44AM -12.4435 130.9658 289° West 179 206 1,500 -960 Descending Aus ATC (RADAR)
05:45AM -12.4293 130.9234 289° West 141 162 700 -780 Descending Aus ATC (RADAR)
05:46AM -12.4203 130.8973 289° West 126 145 200 -720 Descending Aus ATC (RADAR)
05:48AM -12.4146 130.8768 282° West  Level FlightAware Approximate
05:55AM -12.4147 130.8767 282° West  Level Estimated
05:56AM -12.4146 130.8768 282° West  Level FlightAware Approximate
05:57AM -12.4147 130.8767 282° West  Level Estimated
05:58AM -12.4146 130.8768 282° West  Level FlightAware Approximate
05:59AM -12.4147 130.8767 282° West  Level Estimated
06:00AM -12.4146 130.8768 282° West  Level FlightAware Approximate